< < Back
Terminal Aerodrome Forecast


Current Version              Previous Versions:   1  2  3  4  5  6  7  8  9  

Terminal Aerodrome Forecast

843
FTUS44 KOHX 260302 AAA
TAFBNA
TAF AMD
KBNA 260302Z 2603/2624 VRB03KT P6SM SCT040 BKN250
      TEMPO 2603/2605 18010G25KT 4SM TSRA BKN035CB=



Latest METAR

699
SAUS70 KWBC 261300 RRB
MTRBNA
METAR KBNA 261253Z 00000KT 10SM SCT160 BKN200 26/21 A3014 RMK AO2 SLP199
T02560206 $


USA.gov is the U.S. government's official web portal to all federal, state and local government web resources and services.